Time;durP1;ratioP1;P1;durP2;ratioP2;P2;SDS_P1;SDS_P2;PMS_P1;PMS_P2;Temp;Humidity;BMP_temperature;BMP_pressure;BME280_temperature;BME280_humidity;BME280_pressure;Samples;Min_cycle;Max_cycle;Signal;HPM_P1;HPM_P2
2023/06/06 00:01:21;;;;;;;6.47;3.72;;;10.90;99.90;;;;;;5155248;27;20046;-68
2023/06/06 00:03:48;;;;;;;6.90;3.80;;;10.90;99.90;;;;;;5154633;27;20046;-68
2023/06/06 00:06:20;;;;;;;6.68;3.90;;;10.90;99.90;;;;;;5154040;27;20038;-68
2023/06/06 00:08:47;;;;;;;6.45;3.85;;;10.80;99.90;;;;;;5119242;27;20371;-68
2023/06/06 00:11:12;;;;;;;5.32;3.28;;;10.80;99.90;;;;;;5136459;27;20398;-68
2023/06/06 00:13:40;;;;;;;5.78;3.60;;;10.80;99.90;;;;;;5154451;27;20047;-67
2023/06/06 00:16:06;;;;;;;6.35;3.58;;;10.70;99.90;;;;;;5154544;27;20099;-68
2023/06/06 00:18:32;;;;;;;7.38;3.75;;;10.70;99.90;;;;;;5154352;27;20042;-68
2023/06/06 00:20:58;;;;;;;6.25;4.03;;;10.70;99.90;;;;;;5154660;27;20436;-68
2023/06/06 00:23:24;;;;;;;5.82;4.10;;;10.70;99.90;;;;;;5153390;27;20075;-68
2023/06/06 00:25:53;;;;;;;7.38;4.07;;;10.60;99.90;;;;;;5154045;27;20043;-68
2023/06/06 00:28:18;;;;;;;5.45;3.45;;;10.60;99.90;;;;;;5154639;27;20615;-67
2023/06/06 00:30:44;;;;;;;6.82;4.18;;;10.60;99.90;;;;;;5153520;27;20130;-67
2023/06/06 00:33:10;;;;;;;6.38;3.67;;;10.60;99.90;;;;;;5153246;27;20475;-67
2023/06/06 00:35:36;;;;;;;6.03;3.80;;;10.70;99.90;;;;;;5154531;27;20083;-68
2023/06/06 00:38:01;;;;;;;6.63;3.83;;;10.80;99.90;;;;;;5154253;27;20471;-67
2023/06/06 00:40:27;;;;;;;8.32;3.65;;;10.80;99.90;;;;;;5154585;27;20043;-67
2023/06/06 00:42:53;;;;;;;7.78;4.03;;;10.80;99.90;;;;;;5134607;27;20048;-68
2023/06/06 00:45:19;;;;;;;5.97;3.25;;;10.80;99.90;;;;;;5154379;27;20080;-68
2023/06/06 00:47:45;;;;;;;7.20;3.88;;;10.90;99.90;;;;;;5135476;27;20053;-67
2023/06/06 00:50:12;;;;;;;8.05;3.72;;;10.90;99.90;;;;;;5154058;27;20168;-67
2023/06/06 00:52:41;;;;;;;5.47;3.75;;;10.90;99.90;;;;;;5135865;27;20038;-67
2023/06/06 00:55:09;;;;;;;5.13;3.40;;;10.90;99.90;;;;;;5153601;27;20038;-67
2023/06/06 00:57:36;;;;;;;6.10;3.88;;;11.00;99.90;;;;;;5135558;27;20054;-68
2023/06/06 01:00:08;;;;;;;6.55;3.80;;;10.90;99.90;;;;;;5153316;27;20035;-68
2023/06/06 01:02:37;;;;;;;6.88;3.63;;;11.00;99.90;;;;;;5135615;27;20506;-67
2023/06/06 01:05:06;;;;;;;6.95;3.58;;;11.00;99.90;;;;;;5130745;28;20082;-67
2023/06/06 01:07:33;;;;;;;6.53;3.80;;;10.90;99.90;;;;;;5124133;27;20057;-67
2023/06/06 01:09:59;;;;;;;6.45;3.70;;;10.90;99.90;;;;;;5135590;27;20039;-67
2023/06/06 01:13:06;;;;;;;7.03;3.60;;;10.90;99.90;;;;;;5135968;27;20130;-67
2023/06/06 01:15:45;;;;;;;6.47;3.30;;;10.90;99.90;;;;;;5136308;27;20496;-67
2023/06/06 01:18:12;;;;;;;5.90;3.38;;;10.90;99.90;;;;;;5134905;27;20035;-67
2023/06/06 01:20:41;;;;;;;5.97;3.45;;;10.90;99.90;;;;;;5154456;27;20134;-67
2023/06/06 01:23:11;;;;;;;6.95;3.55;;;10.90;99.90;;;;;;5153761;27;20031;-67
2023/06/06 01:25:40;;;;;;;7.00;3.55;;;11.00;99.90;;;;;;5135331;27;20160;-68
2023/06/06 01:28:13;;;;;;;6.65;4.00;;;11.00;99.90;;;;;;5153932;27;20501;-67
2023/06/06 01:30:40;;;;;;;5.40;3.47;;;10.90;99.90;;;;;;5153233;27;20074;-67
2023/06/06 01:33:27;;;;;;;5.85;3.83;;;10.90;99.90;;;;;;5154307;27;20122;-67
2023/06/06 01:35:52;;;;;;;6.03;3.47;;;10.90;99.90;;;;;;5157267;27;20058;-68
2023/06/06 01:38:30;;;;;;;5.65;3.70;;;10.90;99.90;;;;;;5157601;27;20399;-67
2023/06/06 01:40:58;;;;;;;6.18;3.40;;;10.90;99.90;;;;;;5140457;27;20050;-67
2023/06/06 01:43:26;;;;;;;5.93;3.70;;;10.80;99.90;;;;;;5157921;27;20399;-67
2023/06/06 01:45:53;;;;;;;7.22;3.83;;;10.80;99.90;;;;;;5157586;27;20125;-68
2023/06/06 01:48:19;;;;;;;5.43;3.50;;;10.70;99.90;;;;;;5139358;27;20436;-67
2023/06/06 01:50:46;;;;;;;6.25;3.75;;;10.70;99.90;;;;;;5157675;27;20452;-67
2023/06/06 01:53:12;;;;;;;6.03;3.40;;;10.60;99.90;;;;;;5157944;27;20039;-67
2023/06/06 01:55:38;;;;;;;6.60;2.92;;;10.60;99.90;;;;;;5138798;27;20042;-67
2023/06/06 01:58:05;;;;;;;6.05;3.97;;;10.60;99.90;;;;;;5157602;27;20114;-67
2023/06/06 02:00:31;;;;;;;4.95;3.47;;;10.60;99.90;;;;;;5157620;27;20038;-67
2023/06/06 02:02:57;;;;;;;6.20;3.85;;;10.60;99.90;;;;;;5118359;27;20456;-68
2023/06/06 02:05:23;;;;;;;6.20;3.47;;;10.60;99.90;;;;;;5138815;27;20054;-67
2023/06/06 02:07:49;;;;;;;7.47;4.20;;;10.60;99.90;;;;;;5157646;27;20041;-67
2023/06/06 02:10:15;;;;;;;6.50;3.67;;;10.60;99.90;;;;;;5157668;27;20035;-67
2023/06/06 02:12:41;;;;;;;8.18;4.15;;;10.60;99.90;;;;;;5138664;27;20092;-67
2023/06/06 02:15:09;;;;;;;8.57;4.35;;;10.60;99.90;;;;;;5157255;27;20042;-67
2023/06/06 02:17:35;;;;;;;7.18;3.55;;;10.50;99.90;;;;;;5156982;27;20122;-67
2023/06/06 02:20:04;;;;;;;6.50;3.67;;;10.50;99.90;;;;;;5157453;27;20038;-67
2023/06/06 02:22:29;;;;;;;8.63;4.53;;;10.40;99.90;;;;;;5156817;27;20078;-68
2023/06/06 02:24:55;;;;;;;6.15;4.07;;;10.40;99.90;;;;;;5157106;27;20066;-67
2023/06/06 02:27:21;;;;;;;6.63;3.80;;;10.40;99.90;;;;;;5157164;27;20050;-67
2023/06/06 02:29:47;;;;;;;7.18;4.32;;;10.40;99.90;;;;;;5157085;27;20065;-67
2023/06/06 02:32:13;;;;;;;7.38;4.72;;;10.40;99.90;;;;;;5156477;27;20061;-67
2023/06/06 02:34:38;;;;;;;6.70;4.05;;;10.30;99.90;;;;;;5138153;27;20122;-67
2023/06/06 02:37:06;;;;;;;7.63;4.00;;;10.30;99.90;;;;;;5138301;27;20034;-67
2023/06/06 02:39:35;;;;;;;7.35;3.90;;;10.30;99.90;;;;;;5122826;27;20499;-67
2023/06/06 02:42:02;;;;;;;10.65;4.38;;;10.20;99.90;;;;;;5147728;27;20042;-67
2023/06/06 02:44:29;;;;;;;6.30;4.07;;;10.20;99.90;;;;;;5156499;27;20107;-67
2023/06/06 02:46:55;;;;;;;6.75;4.72;;;10.10;99.90;;;;;;5155583;27;20501;-67
2023/06/06 02:49:21;;;;;;;8.73;4.82;;;10.10;99.90;;;;;;5138008;27;20043;-67
2023/06/06 02:51:46;;;;;;;7.00;4.60;;;10.10;99.90;;;;;;5156910;27;20051;-67
2023/06/06 02:54:12;;;;;;;9.10;5.03;;;10.10;99.90;;;;;;5121553;27;20530;-67
2023/06/06 02:56:38;;;;;;;10.65;4.55;;;10.10;99.90;;;;;;5137977;27;20394;-67
2023/06/06 02:59:04;;;;;;;9.15;5.32;;;10.00;99.90;;;;;;5137983;27;20039;-67
2023/06/06 03:01:30;;;;;;;9.23;4.93;;;10.10;99.90;;;;;;5156358;27;20437;-67
2023/06/06 03:03:56;;;;;;;10.35;5.63;;;10.00;99.90;;;;;;5156538;27;20074;-67
2023/06/06 03:06:22;;;;;;;10.00;5.75;;;10.00;99.90;;;;;;5120239;27;20498;-67
2023/06/06 03:08:49;;;;;;;9.43;6.65;;;10.00;99.90;;;;;;5156455;27;20071;-67
2023/06/06 03:11:16;;;;;;;11.98;7.50;;;10.00;99.90;;;;;;5155582;27;20046;-67
2023/06/06 03:13:45;;;;;;;11.27;7.05;;;10.10;99.90;;;;;;5136586;27;20046;-67
2023/06/06 03:16:13;;;;;;;10.82;7.35;;;10.00;99.90;;;;;;5156070;27;20043;-67
2023/06/06 03:18:39;;;;;;;10.95;6.78;;;10.00;99.90;;;;;;5136785;27;20046;-67
2023/06/06 03:21:05;;;;;;;11.98;8.07;;;10.00;99.90;;;;;;5137369;27;20160;-67
2023/06/06 03:23:30;;;;;;;9.65;6.85;;;10.10;99.90;;;;;;5156077;27;20095;-67
2023/06/06 03:25:56;;;;;;;12.57;7.97;;;10.00;99.90;;;;;;5154822;27;20046;-67
2023/06/06 03:28:22;;;;;;;12.00;7.90;;;10.10;99.90;;;;;;5135209;27;20529;-68
2023/06/06 03:30:48;;;;;;;12.07;8.52;;;10.10;99.90;;;;;;5153306;27;20051;-67
2023/06/06 03:33:15;;;;;;;10.95;8.02;;;10.10;99.90;;;;;;5153543;27;20410;-67
2023/06/06 03:35:42;;;;;;;12.98;8.40;;;10.10;99.90;;;;;;5134855;27;20061;-67
2023/06/06 03:38:08;;;;;;;13.73;7.80;;;10.10;99.90;;;;;;5155735;27;20495;-67
2023/06/06 03:40:34;;;;;;;14.07;8.98;;;10.10;99.90;;;;;;5137150;27;20033;-67
2023/06/06 03:43:00;;;;;;;12.32;8.02;;;10.10;99.90;;;;;;5155656;27;20047;-67
2023/06/06 03:45:25;;;;;;;11.73;7.80;;;10.10;99.90;;;;;;5155265;27;20050;-66
2023/06/06 03:47:51;;;;;;;12.70;7.60;;;10.10;99.90;;;;;;5137027;27;20035;-67
2023/06/06 03:50:19;;;;;;;11.23;7.57;;;10.10;99.90;;;;;;5155618;27;20031;-67
2023/06/06 03:52:45;;;;;;;13.45;7.40;;;10.10;99.90;;;;;;5155250;27;20043;-67
2023/06/06 03:55:11;;;;;;;11.75;7.63;;;10.20;99.90;;;;;;5155433;27;20049;-67
2023/06/06 03:57:37;;;;;;;12.48;8.10;;;10.20;99.90;;;;;;5119206;27;20061;-67
2023/06/06 04:00:11;;;;;;;13.27;7.28;;;10.20;99.90;;;;;;5155484;27;20106;-67
2023/06/06 04:02:40;;;;;;;10.70;6.57;;;10.20;99.90;;;;;;5154756;27;20038;-67
2023/06/06 04:05:06;;;;;;;11.10;6.60;;;10.30;99.90;;;;;;5136538;27;20046;-67
2023/06/06 04:07:32;;;;;;;9.60;6.43;;;10.30;99.90;;;;;;5155114;27;20125;-67
2023/06/06 04:09:58;;;;;;;9.32;5.95;;;10.30;99.90;;;;;;5136963;27;20164;-67
2023/06/06 04:12:24;;;;;;;10.15;5.78;;;10.40;99.90;;;;;;5155322;27;20079;-67
2023/06/06 04:14:50;;;;;;;12.45;6.65;;;10.50;99.90;;;;;;5136439;27;20573;-68
2023/06/06 04:17:19;;;;;;;11.43;5.45;;;10.50;99.90;;;;;;5154657;27;20487;-67
2023/06/06 04:19:45;;;;;;;9.77;5.60;;;10.50;99.90;;;;;;5136366;27;20088;-67
2023/06/06 04:22:11;;;;;;;9.70;6.10;;;10.60;99.90;;;;;;5136868;27;20054;-67
2023/06/06 04:24:37;;;;;;;10.68;5.80;;;10.70;99.90;;;;;;5154447;27;20050;-68
2023/06/06 04:27:03;;;;;;;10.00;5.60;;;10.70;99.90;;;;;;5135909;27;20072;-67
2023/06/06 04:29:33;;;;;;;9.60;4.72;;;10.80;99.90;;;;;;5154082;27;20086;-68
2023/06/06 04:32:00;;;;;;;9.43;5.00;;;10.90;99.90;;;;;;5136249;27;20126;-67
2023/06/06 04:34:30;;;;;;;9.35;4.72;;;10.90;99.90;;;;;;5154751;27;20402;-68
2023/06/06 04:37:05;;;;;;;10.43;4.40;;;11.00;99.90;;;;;;5136028;27;20065;-68
2023/06/06 04:39:32;;;;;;;9.20;4.57;;;11.10;99.90;;;;;;5154821;27;20046;-67
2023/06/06 04:41:58;;;;;;;9.18;4.70;;;11.10;99.90;;;;;;5135839;27;20841;-67
2023/06/06 04:44:25;;;;;;;8.57;4.53;;;11.20;99.90;;;;;;5154178;27;20490;-68
2023/06/06 04:46:52;;;;;;;9.27;4.30;;;11.30;99.90;;;;;;5154476;27;20050;-68
2023/06/06 04:49:23;;;;;;;8.40;4.00;;;11.30;99.90;;;;;;5136029;27;20130;-68
2023/06/06 04:51:48;;;;;;;8.57;4.35;;;11.40;99.90;;;;;;5154754;27;20043;-67
2023/06/06 04:54:14;;;;;;;9.77;4.43;;;11.50;99.90;;;;;;5154540;27;20383;-69
2023/06/06 04:56:40;;;;;;;7.88;4.28;;;11.60;99.90;;;;;;5154426;27;20125;-68
2023/06/06 04:59:06;;;;;;;8.18;4.28;;;11.60;99.90;;;;;;5154212;27;20060;-68
2023/06/06 05:01:41;;;;;;;7.57;4.30;;;11.70;99.90;;;;;;5153649;27;20040;-68
2023/06/06 05:04:07;;;;;;;8.25;4.13;;;11.80;99.90;;;;;;5136393;27;20140;-67
2023/06/06 05:06:36;;;;;;;6.80;3.80;;;11.90;99.90;;;;;;5134937;27;20047;-68
2023/06/06 05:09:06;;;;;;;7.78;4.15;;;12.00;99.90;;;;;;5137685;27;20030;-68
2023/06/06 05:11:31;;;;;;;6.45;3.90;;;12.10;99.90;;;;;;5158369;27;20050;-68
2023/06/06 05:13:57;;;;;;;8.23;3.80;;;12.20;99.90;;;;;;5158614;27;20050;-68
2023/06/06 05:16:23;;;;;;;5.80;3.63;;;12.20;99.90;;;;;;5140002;27;20121;-68
2023/06/06 05:18:48;;;;;;;6.75;3.58;;;12.30;99.90;;;;;;5158351;27;20052;-68
2023/06/06 05:21:15;;;;;;;6.55;3.60;;;12.30;99.90;;;;;;5158562;27;20054;-68
2023/06/06 05:23:40;;;;;;;8.05;3.90;;;12.40;99.90;;;;;;5118995;27;20479;-68
2023/06/06 05:26:06;;;;;;;5.75;3.60;;;12.40;99.90;;;;;;5150688;27;20046;-68
2023/06/06 05:28:32;;;;;;;8.02;3.83;;;12.50;99.90;;;;;;5158090;27;20126;-68
2023/06/06 05:30:58;;;;;;;7.25;3.72;;;12.60;99.90;;;;;;5157322;27;20050;-68
2023/06/06 05:33:27;;;;;;;6.70;3.83;;;12.70;99.90;;;;;;5157528;27;20091;-68
2023/06/06 05:35:55;;;;;;;6.57;3.80;;;12.80;99.90;;;;;;5139411;27;20079;-68
2023/06/06 05:38:22;;;;;;;8.05;4.10;;;12.80;99.90;;;;;;5157766;27;20125;-67
2023/06/06 05:40:47;;;;;;;6.93;3.70;;;12.90;99.90;;;;;;5139500;27;20070;-67
2023/06/06 05:43:14;;;;;;;7.28;3.60;;;13.00;99.90;;;;;;5157633;27;20067;-68
2023/06/06 05:45:40;;;;;;;8.20;3.55;;;13.00;99.90;;;;;;5139159;27;20054;-67
2023/06/06 05:48:06;;;;;;;7.00;3.72;;;13.00;99.90;;;;;;5157823;27;20043;-67
2023/06/06 05:50:32;;;;;;;8.23;4.13;;;13.00;99.90;;;;;;5157647;27;20475;-68
2023/06/06 05:52:58;;;;;;;8.02;3.72;;;13.00;99.90;;;;;;5130872;27;20035;-68
2023/06/06 05:55:28;;;;;;;6.22;3.60;;;13.10;99.90;;;;;;5157745;27;20045;-68
2023/06/06 05:57:55;;;;;;;5.78;3.83;;;13.20;99.90;;;;;;5139625;27;20071;-67
2023/06/06 06:00:25;;;;;;;8.18;3.78;;;13.30;99.90;;;;;;5138737;27;20497;-68
2023/06/06 06:02:51;;;;;;;8.02;3.65;;;13.40;99.90;;;;;;5139134;27;20145;-68
2023/06/06 06:05:18;;;;;;;5.75;3.83;;;13.40;99.90;;;;;;5138803;27;20122;-68
2023/06/06 06:07:44;;;;;;;7.13;3.63;;;13.50;99.90;;;;;;5157413;27;20090;-68
2023/06/06 06:10:10;;;;;;;5.80;3.50;;;13.60;99.90;;;;;;5157153;27;20039;-68
2023/06/06 06:12:36;;;;;;;4.85;3.13;;;13.70;99.90;;;;;;5157483;27;20046;-68
2023/06/06 06:15:02;;;;;;;6.97;3.53;;;13.70;99.90;;;;;;5157387;27;20057;-62
2023/06/06 06:17:28;;;;;;;6.60;4.00;;;13.70;99.90;;;;;;5157339;27;20083;-62
2023/06/06 06:19:53;;;;;;;7.40;3.28;;;13.80;99.90;;;;;;5156421;27;20084;-63
2023/06/06 06:22:19;;;;;;;8.93;3.60;;;13.90;99.90;;;;;;5157549;27;20046;-62
2023/06/06 06:24:45;;;;;;;7.32;3.38;;;14.00;99.90;;;;;;5157095;27;20035;-62
2023/06/06 06:27:10;;;;;;;5.55;3.97;;;14.10;99.90;;;;;;5157256;27;20117;-62
2023/06/06 06:29:36;;;;;;;7.20;3.53;;;14.20;99.90;;;;;;5156794;27;20054;-63
2023/06/06 06:32:02;;;;;;;5.78;3.10;;;14.30;99.90;;;;;;5156679;27;20449;-63
2023/06/06 06:34:28;;;;;;;6.88;3.67;;;14.30;99.90;;;;;;5138402;27;20368;-63
2023/06/06 06:36:54;;;;;;;7.78;3.38;;;14.40;99.90;;;;;;5156244;27;20039;-62
2023/06/06 06:39:20;;;;;;;8.30;3.78;;;14.50;99.90;;;;;;5156836;27;20419;-62
2023/06/06 06:41:46;;;;;;;7.20;3.53;;;14.60;99.90;;;;;;5156729;27;20052;-63
2023/06/06 06:44:12;;;;;;;7.38;3.40;;;14.80;99.90;;;;;;5138477;27;20055;-62
2023/06/06 06:46:37;;;;;;;5.63;3.30;;;14.90;99.90;;;;;;5156496;27;20049;-63
2023/06/06 06:49:07;;;;;;;6.28;3.40;;;14.90;99.90;;;;;;5156623;27;20062;-62
2023/06/06 06:51:32;;;;;;;5.35;2.72;;;15.00;99.90;;;;;;5156532;27;20051;-62
2023/06/06 06:53:58;;;;;;;7.28;3.05;;;15.10;99.90;;;;;;5156468;27;20384;-62
2023/06/06 06:56:24;;;;;;;6.95;3.00;;;15.10;99.90;;;;;;5156014;27;20114;-63
2023/06/06 06:58:50;;;;;;;5.95;3.25;;;15.10;99.90;;;;;;5137752;27;20047;-63
2023/06/06 07:01:19;;;;;;;4.63;3.17;;;15.20;99.90;;;;;;5156289;27;20042;-63
2023/06/06 07:03:48;;;;;;;6.82;3.30;;;15.30;99.90;;;;;;5137910;27;20505;-62
2023/06/06 07:06:14;;;;;;;4.25;2.95;;;15.30;99.90;;;;;;5137542;27;20059;-62
2023/06/06 07:08:41;;;;;;;6.68;2.88;;;15.30;99.90;;;;;;5156306;27;20047;-63
2023/06/06 07:11:07;;;;;;;6.22;2.83;;;15.30;99.90;;;;;;5156392;27;20043;-63
2023/06/06 07:13:33;;;;;;;5.28;3.05;;;15.40;99.90;;;;;;5146235;27;20069;-64
2023/06/06 07:15:58;;;;;;;4.68;2.90;;;15.50;99.90;;;;;;5150114;27;20467;-63
2023/06/06 07:18:24;;;;;;;5.05;3.03;;;15.60;99.90;;;;;;5152459;27;20123;-64
2023/06/06 07:20:51;;;;;;;6.40;2.88;;;15.80;99.90;;;;;;5135871;27;20046;-64
2023/06/06 07:23:17;;;;;;;5.75;3.47;;;15.90;99.90;;;;;;5151708;27;20421;-63
2023/06/06 07:25:42;;;;;;;7.43;3.30;;;16.10;99.90;;;;;;5155878;27;20058;-64
2023/06/06 07:28:10;;;;;;;5.57;2.70;;;16.20;99.90;;;;;;5154569;27;20483;-64
2023/06/06 07:30:36;;;;;;;6.10;2.70;;;16.30;99.90;;;;;;5154002;27;20157;-64
2023/06/06 07:33:02;;;;;;;6.60;3.10;;;16.50;99.90;;;;;;5154594;27;20117;-63
2023/06/06 07:35:32;;;;;;;6.65;3.20;;;16.60;99.90;;;;;;5118670;27;20058;-64
2023/06/06 07:37:59;;;;;;;5.82;3.13;;;16.60;99.90;;;;;;5154555;27;20038;-64
2023/06/06 07:40:24;;;;;;;6.78;2.90;;;16.60;99.90;;;;;;5155234;27;20050;-64
2023/06/06 07:42:50;;;;;;;6.72;2.97;;;16.70;99.90;;;;;;5154809;27;20386;-64
2023/06/06 07:45:16;;;;;;;6.70;2.80;;;16.90;99.90;;;;;;5155271;27;20057;-64
2023/06/06 07:47:42;;;;;;;4.80;2.97;;;16.90;99.90;;;;;;5135968;27;20118;-64
2023/06/06 07:50:08;;;;;;;4.50;2.90;;;16.90;99.90;;;;;;5135560;27;20050;-64
2023/06/06 07:52:34;;;;;;;6.97;2.88;;;17.00;99.90;;;;;;5154646;27;20039;-64
2023/06/06 07:55:01;;;;;;;6.50;3.10;;;17.20;99.90;;;;;;5136338;27;20395;-63
2023/06/06 07:57:27;;;;;;;4.85;2.70;;;17.30;99.90;;;;;;5135702;27;20038;-64
2023/06/06 07:59:53;;;;;;;3.78;2.72;;;17.20;99.90;;;;;;5154175;27;20042;-63
2023/06/06 08:02:19;;;;;;;4.20;2.70;;;17.20;99.90;;;;;;5153899;27;20043;-63
2023/06/06 08:04:45;;;;;;;4.47;2.65;;;17.30;99.90;;;;;;5154033;27;20057;-64
2023/06/06 08:07:13;;;;;;;5.82;2.78;;;17.40;99.90;;;;;;5153697;27;20050;-63
2023/06/06 08:09:39;;;;;;;4.60;3.10;;;17.50;99.90;;;;;;5154427;27;20064;-64
2023/06/06 08:12:05;;;;;;;6.85;3.25;;;17.60;99.90;;;;;;5153568;27;20093;-64
2023/06/06 08:14:33;;;;;;;4.85;2.95;;;17.70;99.90;;;;;;5132226;27;20395;-63
2023/06/06 08:16:59;;;;;;;5.07;2.88;;;17.80;99.90;;;;;;5154215;27;20046;-63
2023/06/06 08:19:26;;;;;;;4.45;2.90;;;17.80;99.90;;;;;;5153372;27;20094;-63
2023/06/06 08:21:52;;;;;;;4.45;3.00;;;17.80;99.90;;;;;;5154270;27;20051;-63
2023/06/06 08:24:17;;;;;;;5.13;3.00;;;17.90;99.90;;;;;;5136042;27;20055;-63
2023/06/06 08:26:43;;;;;;;4.95;2.53;;;18.00;99.90;;;;;;5133855;27;20051;-63
2023/06/06 08:29:09;;;;;;;7.43;3.03;;;18.00;99.90;;;;;;5133685;27;20060;-63
2023/06/06 08:31:34;;;;;;;5.57;3.38;;;18.00;99.90;;;;;;5144645;27;20035;-64
2023/06/06 08:34:00;;;;;;;5.75;3.13;;;18.10;99.90;;;;;;5138838;27;20078;-63
2023/06/06 08:36:26;;;;;;;5.47;2.83;;;18.20;99.90;;;;;;5115241;27;20066;-63
2023/06/06 08:38:52;;;;;;;5.22;2.65;;;18.40;99.90;;;;;;5130502;27;20043;-64
2023/06/06 08:41:19;;;;;;;7.55;3.38;;;18.50;99.90;;;;;;5154337;27;20039;-65
2023/06/06 08:43:46;;;;;;;5.97;3.17;;;18.60;99.90;;;;;;5153346;27;20046;-65
2023/06/06 08:46:13;;;;;;;4.60;2.67;;;18.70;99.90;;;;;;5154545;27;20054;-65
2023/06/06 08:48:40;;;;;;;5.45;3.20;;;18.90;99.90;;;;;;5153849;27;20044;-64
2023/06/06 08:51:07;;;;;;;3.35;2.53;;;19.00;99.90;;;;;;5154393;27;20099;-65
2023/06/06 08:53:33;;;;;;;4.57;2.72;;;19.30;99.90;;;;;;5154124;27;20065;-64
2023/06/06 08:56:00;;;;;;;4.80;2.80;;;19.40;99.90;;;;;;5125348;27;20543;-64
2023/06/06 08:58:29;;;;;;;7.85;3.10;;;19.50;99.90;;;;;;5133576;27;20047;-65
2023/06/06 09:00:58;;;;;;;7.72;3.10;;;19.60;99.90;;;;;;5133437;27;20073;-64
2023/06/06 09:03:27;;;;;;;5.60;3.40;;;19.70;99.90;;;;;;5132264;27;20074;-64
2023/06/06 09:05:54;;;;;;;8.05;3.50;;;19.70;99.90;;;;;;5133169;28;20110;-64
2023/06/06 09:08:20;;;;;;;4.13;2.78;;;19.80;99.90;;;;;;5144453;27;20046;-64
2023/06/06 09:10:46;;;;;;;5.70;2.90;;;19.80;99.90;;;;;;5131441;28;20122;-65
2023/06/06 09:13:12;;;;;;;5.30;2.65;;;19.90;99.90;;;;;;5133630;27;20168;-64
2023/06/06 09:15:37;;;;;;;3.92;2.83;;;20.00;99.90;;;;;;5115387;28;20040;-65
2023/06/06 09:18:03;;;;;;;5.90;3.30;;;19.90;99.90;;;;;;5132888;27;20039;-64
2023/06/06 09:20:29;;;;;;;5.45;2.88;;;20.10;99.90;;;;;;5133314;28;20043;-64
2023/06/06 09:22:57;;;;;;;5.00;3.17;;;20.30;99.90;;;;;;5133298;27;20122;-64
2023/06/06 09:25:27;;;;;;;4.78;3.13;;;20.40;99.90;;;;;;5133306;28;20092;-64
2023/06/06 09:28:00;;;;;;;5.00;2.75;;;20.50;99.90;;;;;;5133351;27;20047;-65
2023/06/06 09:30:28;;;;;;;6.93;2.95;;;20.60;99.90;;;;;;5132167;27;20062;-65
2023/06/06 09:32:58;;;;;;;5.80;3.15;;;20.70;99.90;;;;;;5133071;27;20051;-64
2023/06/06 09:35:35;;;;;;;6.20;3.13;;;20.60;99.90;;;;;;5132940;28;20047;-65
2023/06/06 09:38:16;;;;;;;5.18;3.10;;;20.60;99.90;;;;;;5148941;27;20394;-65
2023/06/06 09:40:46;;;;;;;5.88;2.80;;;20.70;99.90;;;;;;5153639;27;20121;-66
2023/06/06 09:43:13;;;;;;;5.75;3.05;;;20.80;99.90;;;;;;5135429;27;20043;-65
2023/06/06 09:45:54;;;;;;;5.30;3.17;;;21.00;99.90;;;;;;5154186;27;20387;-65
2023/06/06 09:48:25;;;;;;;4.68;2.88;;;21.20;99.90;;;;;;5153402;27;20446;-65
2023/06/06 09:50:51;;;;;;;4.18;2.88;;;21.30;99.90;;;;;;5153993;27;20476;-65
2023/06/06 09:53:17;;;;;;;4.50;3.05;;;21.40;99.90;;;;;;5135568;27;20449;-65
2023/06/06 09:55:43;;;;;;;6.03;3.20;;;21.50;99.90;;;;;;5148869;27;20050;-65
2023/06/06 09:58:13;;;;;;;5.78;3.40;;;21.60;99.90;;;;;;5136779;27;20050;-65
2023/06/06 10:00:38;;;;;;;6.50;3.40;;;21.70;99.90;;;;;;5136557;27;20042;-64
2023/06/06 10:03:06;;;;;;;5.88;3.28;;;21.80;99.90;;;;;;5118437;27;20126;-64
2023/06/06 10:05:32;;;;;;;6.43;3.22;;;21.90;99.90;;;;;;5118392;27;20043;-64
2023/06/06 10:07:58;;;;;;;6.30;3.80;;;21.90;99.90;;;;;;5151236;27;20376;-64
2023/06/06 10:10:25;;;;;;;5.80;3.25;;;22.10;99.90;;;;;;5139154;27;20456;-65
2023/06/06 10:12:54;;;;;;;6.82;3.28;;;22.20;99.90;;;;;;5157486;27;20054;-64
2023/06/06 10:15:20;;;;;;;6.85;3.30;;;22.00;99.90;;;;;;5136440;27;20039;-64
2023/06/06 10:17:46;;;;;;;5.38;3.42;;;22.10;99.90;;;;;;5136265;27;20099;-64
2023/06/06 10:20:12;;;;;;;7.38;3.83;;;22.30;99.90;;;;;;5136331;27;20039;-64
2023/06/06 10:22:39;;;;;;;6.20;3.38;;;22.50;99.90;;;;;;5136722;27;20092;-64
2023/06/06 10:25:09;;;;;;;5.75;3.20;;;22.70;99.90;;;;;;5136029;27;20118;-65
2023/06/06 10:27:55;;;;;;;6.88;3.20;;;22.90;99.90;;;;;;5118217;27;20035;-64
2023/06/06 10:30:28;;;;;;;5.72;3.17;;;23.10;99.90;;;;;;5135554;27;20066;-65
2023/06/06 10:33:13;;;;;;;4.90;2.88;;;23.30;99.90;;;;;;5156704;27;20103;-64
2023/06/06 10:35:40;;;;;;;4.75;3.90;;;23.50;99.90;;;;;;5135929;27;20050;-65
2023/06/06 10:38:09;;;;;;;6.03;3.03;;;23.50;99.90;;;;;;5126283;27;20042;-64
2023/06/06 10:41:16;;;;;;;5.22;3.13;;;23.30;99.90;;;;;;5156537;27;20043;-64
2023/06/06 10:43:42;;;;;;;;;;;23.30;99.90;;;;;;5107127;27;20062;-66
2023/06/06 10:46:08;;;;;;;7.53;3.87;;;23.40;99.90;;;;;;5135864;27;20010;-64
2023/06/06 10:48:40;;;;;;;5.32;3.38;;;23.40;99.90;;;;;;5136096;27;20122;-65
2023/06/06 10:51:07;;;;;;;6.68;3.28;;;23.40;99.90;;;;;;5117462;27;20387;-66
2023/06/06 10:53:33;;;;;;;4.28;2.80;;;23.40;99.90;;;;;;5117588;27;20047;-65
2023/06/06 10:55:59;;;;;;;6.78;3.28;;;23.40;99.90;;;;;;5145823;27;20121;-64
2023/06/06 10:58:32;;;;;;;5.05;3.00;;;23.60;99.90;;;;;;5156469;27;20050;-64
2023/06/06 11:01:06;;;;;;;6.05;3.17;;;23.80;99.90;;;;;;5155683;27;20513;-65
2023/06/06 11:03:41;;;;;;;5.13;2.88;;;24.20;99.90;;;;;;5156305;27;20399;-65
2023/06/06 11:06:26;;;;;;;5.78;2.72;;;24.50;99.90;;;;;;5154913;27;20522;-64
2023/06/06 11:08:59;;;;;;;5.05;2.92;;;24.70;99.90;;;;;;5134033;27;20058;-65
2023/06/06 11:11:29;;;;;;;4.55;2.80;;;24.80;99.90;;;;;;5135607;27;20376;-65
2023/06/06 11:13:59;;;;;;;3.58;2.65;;;25.00;99.90;;;;;;5135718;27;20039;-64
2023/06/06 11:16:29;;;;;;;4.97;2.92;;;25.10;99.90;;;;;;5135307;27;20086;-64
2023/06/06 11:19:04;;;;;;;7.05;3.00;;;25.10;99.90;;;;;;5135468;27;20047;-65
2023/06/06 11:21:31;;;;;;;;;;;25.30;99.90;;;;;;5136283;27;20095;-65
2023/06/06 11:23:58;;;;;;;4.25;2.53;;;25.50;99.90;;;;;;5134952;27;19931;-65
2023/06/06 11:26:26;;;;;;;6.03;2.55;;;25.80;99.90;;;;;;5135210;27;20126;-65
2023/06/06 11:28:54;;;;;;;6.50;3.03;;;25.90;99.90;;;;;;5135227;27;20114;-65
2023/06/06 11:31:20;;;;;;;5.30;3.05;;;26.00;99.90;;;;;;5143306;27;20055;-66
2023/06/06 11:33:46;;;;;;;5.93;2.85;;;26.00;99.90;;;;;;5134035;27;20172;-66
2023/06/06 11:36:12;;;;;;;4.22;2.70;;;25.80;99.90;;;;;;5134276;27;20043;-66
2023/06/06 11:38:41;;;;;;;4.93;2.90;;;25.80;99.90;;;;;;5147613;27;20502;-65
2023/06/06 11:41:08;;;;;;;5.47;3.03;;;25.70;99.90;;;;;;5155313;27;20042;-66
2023/06/06 11:43:34;;;;;;;5.00;2.70;;;25.50;99.90;;;;;;5147057;27;20104;-65
2023/06/06 11:46:06;;;;;;;4.35;2.95;;;25.70;99.90;;;;;;5149593;27;20049;-65
2023/06/06 11:48:35;;;;;;;6.40;3.08;;;25.90;99.90;;;;;;5140320;27;20140;-65
2023/06/06 11:51:14;;;;;;;5.68;3.03;;;26.10;99.90;;;;;;5134644;27;20061;-65
2023/06/06 11:53:40;;;;;;;4.47;3.13;;;26.10;99.90;;;;;;5134467;27;20047;-68
2023/06/06 11:56:06;;;;;;;5.53;2.90;;;26.00;99.90;;;;;;5145864;27;20131;-65
2023/06/06 11:58:37;;;;;;;7.53;3.50;;;25.80;99.90;;;;;;5155592;27;20042;-65
2023/06/06 12:01:04;;;;;;;4.45;3.03;;;25.80;99.90;;;;;;5154621;27;20082;-65
2023/06/06 12:03:33;;;;;;;6.25;3.10;;;25.90;99.90;;;;;;5155292;27;20150;-65
2023/06/06 12:06:07;;;;;;;5.80;3.17;;;26.10;99.90;;;;;;5154548;27;20086;-65
2023/06/06 12:08:34;;;;;;;4.28;2.92;;;26.40;99.90;;;;;;5155050;27;20046;-65
2023/06/06 12:11:29;;;;;;;8.23;3.03;;;26.60;99.90;;;;;;5134371;27;20084;-65
2023/06/06 12:13:57;;;;;;;5.60;3.10;;;26.60;99.90;;;;;;5134345;27;20061;-62
2023/06/06 12:16:28;;;;;;;4.63;2.97;;;26.70;99.90;;;;;;5133271;27;20291;-63
2023/06/06 12:18:55;;;;;;;4.05;3.08;;;26.80;99.90;;;;;;5134287;27;20050;-63
2023/06/06 12:21:21;;;;;;;5.05;3.20;;;26.80;99.90;;;;;;5134004;27;20134;-63
2023/06/06 12:23:47;;;;;;;4.68;3.20;;;26.80;99.90;;;;;;5133885;27;20487;-63
2023/06/06 12:26:18;;;;;;;5.13;3.00;;;26.80;99.90;;;;;;5134128;27;20127;-63
2023/06/06 12:28:54;;;;;;;4.97;2.72;;;26.90;99.90;;;;;;5134295;27;20054;-63
2023/06/06 12:31:21;;;;;;;4.85;2.90;;;27.00;99.90;;;;;;5114906;27;20062;-63
2023/06/06 12:33:47;;;;;;;5.78;3.25;;;26.80;99.90;;;;;;5134054;27;20499;-63
2023/06/06 12:36:20;;;;;;;6.85;3.83;;;26.70;99.90;;;;;;5133650;27;20104;-63
2023/06/06 12:39:13;;;;;;;4.25;2.80;;;26.90;99.90;;;;;;5129659;27;20099;-63
2023/06/06 12:41:42;;;;;;;3.72;2.80;;;27.10;99.90;;;;;;5150136;27;20047;-63
2023/06/06 12:44:12;;;;;;;3.58;2.42;;;27.10;99.90;;;;;;5154358;27;20068;-63
2023/06/06 12:46:40;;;;;;;6.63;2.92;;;27.30;99.90;;;;;;5154500;27;20045;-63
2023/06/06 12:49:06;;;;;;;5.50;3.20;;;27.60;99.90;;;;;;5154220;27;20042;-63